sensor_id;sensor_type;location;lat;lon;timestamp;pressure;altitude;pressure_sealevel;temperature;humidity
48390;BME280;34643;47.964;7.982;2022-10-18T00:02:23;97646.06;;;19.77;67.95
48390;BME280;34643;47.964;7.982;2022-10-18T00:07:24;97638.22;;;19.77;68.16
48390;BME280;34643;47.964;7.982;2022-10-18T00:12:24;97637.41;;;19.76;68.02
48390;BME280;34643;47.964;7.982;2022-10-18T00:17:24;97642.63;;;19.76;68.03
48390;BME280;34643;47.964;7.982;2022-10-18T00:22:25;97644.44;;;19.75;67.97
48390;BME280;34643;47.964;7.982;2022-10-18T00:27:27;97639.19;;;19.75;68.11
48390;BME280;34643;47.964;7.982;2022-10-18T00:32:27;97636.56;;;19.75;68.20
48390;BME280;34643;47.964;7.982;2022-10-18T00:37:28;97634.78;;;19.76;68.11
48390;BME280;34643;47.964;7.982;2022-10-18T00:42:32;97639.19;;;19.75;68.13
48390;BME280;34643;47.964;7.982;2022-10-18T00:47:33;97630.47;;;19.75;68.15
48390;BME280;34643;47.964;7.982;2022-10-18T00:52:35;97638.31;;;19.75;68.15
48390;BME280;34643;47.964;7.982;2022-10-18T00:57:36;97625.22;;;19.75;68.17
48390;BME280;34643;47.964;7.982;2022-10-18T01:02:37;97630.47;;;19.75;68.15
48390;BME280;34643;47.964;7.982;2022-10-18T01:38:24;97622.72;;;19.73;68.07
48390;BME280;34643;47.964;7.982;2022-10-18T01:43:25;97624.41;;;19.74;68.28
48390;BME280;34643;47.964;7.982;2022-10-18T01:48:26;97620.09;;;19.73;68.14
48390;BME280;34643;47.964;7.982;2022-10-18T01:53:28;97620.94;;;19.74;68.06
48390;BME280;34643;47.964;7.982;2022-10-18T01:58:37;97617.47;;;19.73;68.13
48390;BME280;34643;47.964;7.982;2022-10-18T02:03:41;97615.72;;;19.74;68.12
48390;BME280;34643;47.964;7.982;2022-10-18T02:08:45;97606.13;;;19.73;68.11
48390;BME280;34643;47.964;7.982;2022-10-18T02:18:50;97600.06;;;19.72;68.17
48390;BME280;34643;47.964;7.982;2022-10-18T02:23:53;97607.09;;;19.72;68.10
48390;BME280;34643;47.964;7.982;2022-10-18T02:28:54;97599.25;;;19.72;68.08
48390;BME280;34643;47.964;7.982;2022-10-18T02:33:59;97607.09;;;19.72;68.17
48390;BME280;34643;47.964;7.982;2022-10-18T02:39:05;97605.31;;;19.72;68.24
48390;BME280;34643;47.964;7.982;2022-10-18T02:44:07;97601.88;;;19.72;68.46
48390;BME280;34643;47.964;7.982;2022-10-18T02:49:07;97612.34;;;19.72;68.29
48390;BME280;34643;47.964;7.982;2022-10-18T02:54:07;97625.44;;;19.72;68.43
48390;BME280;34643;47.964;7.982;2022-10-18T02:59:08;97648.16;;;19.71;68.39
48390;BME280;34643;47.964;7.982;2022-10-18T03:04:08;97653.38;;;19.71;68.33
48390;BME280;34643;47.964;7.982;2022-10-18T03:09:08;97663.88;;;19.71;68.31
48390;BME280;34643;47.964;7.982;2022-10-18T03:14:09;97658.63;;;19.71;68.30
48390;BME280;34643;47.964;7.982;2022-10-18T03:19:09;97661.34;;;19.70;68.42
48390;BME280;34643;47.964;7.982;2022-10-18T03:24:09;97655.28;;;19.69;68.47
48390;BME280;34643;47.964;7.982;2022-10-18T03:29:10;97663.97;;;19.70;68.35
48390;BME280;34643;47.964;7.982;2022-10-18T03:34:10;97663.13;;;19.69;68.35
48390;BME280;34643;47.964;7.982;2022-10-18T03:39:10;97663.97;;;19.70;68.39
48390;BME280;34643;47.964;7.982;2022-10-18T03:44:11;97663.13;;;19.69;68.33
48390;BME280;34643;47.964;7.982;2022-10-18T03:49:12;97671.81;;;19.70;68.40
48390;BME280;34643;47.964;7.982;2022-10-18T03:54:12;97679.69;;;19.70;68.24
48390;BME280;34643;47.964;7.982;2022-10-18T03:59:12;97684.91;;;19.70;68.31
48390;BME280;34643;47.964;7.982;2022-10-18T04:04:13;97691.13;;;19.69;68.55
48390;BME280;34643;47.964;7.982;2022-10-18T04:09:13;97694.56;;;19.69;68.43
48390;BME280;34643;47.964;7.982;2022-10-18T04:14:13;97685.88;;;19.69;68.50
48390;BME280;34643;47.964;7.982;2022-10-18T04:19:14;97688.50;;;19.69;68.55
48390;BME280;34643;47.964;7.982;2022-10-18T04:24:15;97681.19;;;19.74;68.06
48390;BME280;34643;47.964;7.982;2022-10-18T04:29:15;97685.06;;;19.81;68.33
48390;BME280;34643;47.964;7.982;2022-10-18T04:34:16;97671.84;;;19.83;68.37
48390;BME280;34643;47.964;7.982;2022-10-18T04:39:16;97669.56;;;19.52;65.23
48390;BME280;34643;47.964;7.982;2022-10-18T04:44:16;97671.53;;;18.30;63.59
48390;BME280;34643;47.964;7.982;2022-10-18T04:49:17;97682.38;;;18.10;62.58
48390;BME280;34643;47.964;7.982;2022-10-18T04:54:17;97678.88;;;17.82;63.08
48390;BME280;34643;47.964;7.982;2022-10-18T04:59:17;97687.63;;;18.10;62.66
48390;BME280;34643;47.964;7.982;2022-10-18T05:04:17;97684.97;;;18.78;62.82
48390;BME280;34643;47.964;7.982;2022-10-18T05:09:18;97685.25;;;19.01;63.00
48390;BME280;34643;47.964;7.982;2022-10-18T05:14:21;97685.34;;;19.12;63.50
48390;BME280;34643;47.964;7.982;2022-10-18T05:19:21;97688.59;;;19.16;63.92
48390;BME280;34643;47.964;7.982;2022-10-18T05:24:21;97685.78;;;19.19;64.17
48390;BME280;34643;47.964;7.982;2022-10-18T05:29:22;97679.50;;;19.22;64.44
48390;BME280;34643;47.964;7.982;2022-10-18T05:34:22;97674.16;;;19.23;64.73
48390;BME280;34643;47.964;7.982;2022-10-18T05:39:23;97679.31;;;19.25;64.75
48390;BME280;34643;47.964;7.982;2022-10-18T05:44:24;97680.97;;;19.26;64.82
48390;BME280;34643;47.964;7.982;2022-10-18T05:49:24;97682.66;;;19.27;65.00
48390;BME280;34643;47.964;7.982;2022-10-18T05:54:24;97680.03;;;19.27;65.08
48390;BME280;34643;47.964;7.982;2022-10-18T05:59:25;97689.56;;;19.28;64.94
48390;BME280;34643;47.964;7.982;2022-10-18T06:04:25;97689.56;;;19.28;65.02
48390;BME280;34643;47.964;7.982;2022-10-18T06:09:25;97683.38;;;19.29;65.14
48390;BME280;34643;47.964;7.982;2022-10-18T06:14:27;97687.69;;;19.30;65.19
48390;BME280;34643;47.964;7.982;2022-10-18T06:19:27;97692.91;;;19.30;65.09
48390;BME280;34643;47.964;7.982;2022-10-18T06:24:28;97698.16;;;19.30;65.09
48390;BME280;34643;47.964;7.982;2022-10-18T06:29:28;97692.91;;;19.30;65.33
48390;BME280;34643;47.964;7.982;2022-10-18T06:34:28;97706.72;;;19.32;65.31
48390;BME280;34643;47.964;7.982;2022-10-18T06:39:29;97708.53;;;19.31;65.27
48390;BME280;34643;47.964;7.982;2022-10-18T06:44:29;97722.44;;;19.32;65.27
48390;BME280;34643;47.964;7.982;2022-10-18T06:49:30;97719.72;;;19.33;65.33
48390;BME280;34643;47.964;7.982;2022-10-18T06:54:30;97733.63;;;19.34;65.27
48390;BME280;34643;47.964;7.982;2022-10-18T06:59:31;97724.97;;;19.33;65.31
48390;BME280;34643;47.964;7.982;2022-10-18T07:04:31;97724.00;;;19.34;65.36
48390;BME280;34643;47.964;7.982;2022-10-18T07:09:31;97725.78;;;19.34;65.42
48390;BME280;34643;47.964;7.982;2022-10-18T07:14:32;97716.03;;;19.36;65.29
48390;BME280;34643;47.964;7.982;2022-10-18T07:19:32;97730.00;;;19.36;65.37
48390;BME280;34643;47.964;7.982;2022-10-18T07:24:32;97735.22;;;19.36;65.41
48390;BME280;34643;47.964;7.982;2022-10-18T07:29:33;97734.38;;;19.36;65.46
48390;BME280;34643;47.964;7.982;2022-10-18T07:34:33;97745.69;;;19.36;65.39
48390;BME280;34643;47.964;7.982;2022-10-18T07:39:33;97757.00;;;19.37;65.33
48390;BME280;34643;47.964;7.982;2022-10-18T07:44:33;97760.34;;;19.39;65.40
48390;BME280;34643;47.964;7.982;2022-10-18T07:49:34;97754.91;;;19.42;65.31
48390;BME280;34643;47.964;7.982;2022-10-18T07:54:34;97744.22;;;19.45;65.23
48390;BME280;34643;47.964;7.982;2022-10-18T07:59:34;97744.00;;;19.48;65.27
48390;BME280;34643;47.964;7.982;2022-10-18T08:04:35;97738.69;;;19.50;65.42
48390;BME280;34643;47.964;7.982;2022-10-18T08:09:35;97738.69;;;19.50;65.14
48390;BME280;34643;47.964;7.982;2022-10-18T08:14:35;97737.75;;;19.51;65.02
48390;BME280;34643;47.964;7.982;2022-10-18T08:19:36;97742.88;;;19.52;65.09
48390;BME280;34643;47.964;7.982;2022-10-18T08:24:36;97737.31;;;19.57;65.16
48390;BME280;34643;47.964;7.982;2022-10-18T08:29:36;97745.28;;;19.55;65.26
48390;BME280;34643;47.964;7.982;2022-10-18T08:34:36;97736.50;;;19.56;65.23
48390;BME280;34643;47.964;7.982;2022-10-18T08:39:37;97742.56;;;19.57;65.42
48390;BME280;34643;47.964;7.982;2022-10-18T08:44:42;97740.56;;;19.61;65.24
48390;BME280;34643;47.964;7.982;2022-10-18T08:49:55;97735.31;;;19.61;65.28
48390;BME280;34643;47.964;7.982;2022-10-18T08:54:58;97737.13;;;19.60;65.58
48390;BME280;34643;47.964;7.982;2022-10-18T09:00:04;97746.84;;;19.58;65.39
48390;BME280;34643;47.964;7.982;2022-10-18T09:05:11;97757.34;;;19.58;65.33
48390;BME280;34643;47.964;7.982;2022-10-18T09:15:19;97736.50;;;19.56;65.38
48390;BME280;34643;47.964;7.982;2022-10-18T09:20:25;97743.38;;;19.57;65.44
48390;BME280;34643;47.964;7.982;2022-10-18T09:25:36;97753.84;;;19.57;65.66
48390;BME280;34643;47.964;7.982;2022-10-18T09:36:02;97755.66;;;19.57;65.50
48390;BME280;34643;47.964;7.982;2022-10-18T09:41:06;97755.66;;;19.57;65.41
48390;BME280;34643;47.964;7.982;2022-10-18T09:46:07;97745.16;;;19.57;65.50
48390;BME280;34643;47.964;7.982;2022-10-18T09:51:10;97751.25;;;19.57;65.58
48390;BME280;34643;47.964;7.982;2022-10-18T09:56:19;97752.94;;;19.59;65.53
48390;BME280;34643;47.964;7.982;2022-10-18T10:01:22;97746.00;;;19.57;65.45
48390;BME280;34643;47.964;7.982;2022-10-18T10:06:30;97745.06;;;19.59;65.45
48390;BME280;34643;47.964;7.982;2022-10-18T10:16:31;97750.31;;;19.59;65.54
48390;BME280;34643;47.964;7.982;2022-10-18T10:21:31;97749.25;;;19.61;65.57
48390;BME280;34643;47.964;7.982;2022-10-18T10:26:34;97750.09;;;19.62;65.68
48390;BME280;34643;47.964;7.982;2022-10-18T10:31:37;97737.94;;;19.61;65.59
48390;BME280;34643;47.964;7.982;2022-10-18T10:36:46;97741.38;;;19.61;65.42
48390;BME280;34643;47.964;7.982;2022-10-18T10:41:56;97732.59;;;19.62;65.70
48390;BME280;34643;47.964;7.982;2022-10-18T10:46:58;97729.88;;;19.64;65.62
48390;BME280;34643;47.964;7.982;2022-10-18T10:52:00;97728.94;;;19.65;65.60
48390;BME280;34643;47.964;7.982;2022-10-18T11:12:30;97728.00;;;19.66;65.61
48390;BME280;34643;47.964;7.982;2022-10-18T11:17:41;97732.31;;;19.67;65.57
48390;BME280;34643;47.964;7.982;2022-10-18T11:22:46;97738.47;;;19.66;65.67
48390;BME280;34643;47.964;7.982;2022-10-18T11:28:26;97736.69;;;19.66;65.57
48390;BME280;34643;47.964;7.982;2022-10-18T11:38:33;97724.66;;;19.64;65.36
48390;BME280;34643;47.964;7.982;2022-10-18T11:43:54;97725.38;;;19.66;65.69
48390;BME280;34643;47.964;7.982;2022-10-18T11:49:07;97729.78;;;19.65;65.55
48390;BME280;34643;47.964;7.982;2022-10-18T12:04:20;97700.88;;;19.67;65.32
48390;BME280;34643;47.964;7.982;2022-10-18T12:09:30;97706.09;;;19.67;65.55
48390;BME280;34643;47.964;7.982;2022-10-18T12:14:39;97701.81;;;19.66;65.48
48390;BME280;34643;47.964;7.982;2022-10-18T12:19:41;97691.31;;;19.66;65.53
48390;BME280;34643;47.964;7.982;2022-10-18T12:24:42;97691.22;;;19.67;65.55
48390;BME280;34643;47.964;7.982;2022-10-18T12:34:47;97685.69;;;19.72;65.61
48390;BME280;34643;47.964;7.982;2022-10-18T12:39:56;97689.06;;;19.74;65.70
48390;BME280;34643;47.964;7.982;2022-10-18T12:45:02;97687.25;;;19.74;65.91
48390;BME280;34643;47.964;7.982;2022-10-18T12:50:04;97681.81;;;19.78;66.16
48390;BME280;34643;47.964;7.982;2022-10-18T12:55:26;97675.72;;;19.77;66.38
48390;BME280;34643;47.964;7.982;2022-10-18T13:10:58;97671.53;;;19.87;66.75
48390;BME280;34643;47.964;7.982;2022-10-18T13:16:14;97662.72;;;19.88;66.83
48390;BME280;34643;47.964;7.982;2022-10-18T13:26:43;97650.59;;;20.11;66.52
48390;BME280;34643;47.964;7.982;2022-10-18T13:31:48;97649.28;;;20.06;66.77
48390;BME280;34643;47.964;7.982;2022-10-18T13:36:55;97655.66;;;20.02;67.08
48390;BME280;34643;47.964;7.982;2022-10-18T14:07:16;97662.00;;;19.86;66.74
48390;BME280;34643;47.964;7.982;2022-10-18T14:17:30;97662.63;;;19.90;66.58
48390;BME280;34643;47.964;7.982;2022-10-18T14:22:33;97661.03;;;19.87;66.61
48390;BME280;34643;47.964;7.982;2022-10-18T14:27:35;97652.34;;;19.87;66.54
48390;BME280;34643;47.964;7.982;2022-10-18T14:32:36;97654.25;;;19.85;66.49
48390;BME280;34643;47.964;7.982;2022-10-18T14:37:36;97648.16;;;19.84;66.31
48390;BME280;34643;47.964;7.982;2022-10-18T14:42:36;97644.69;;;19.84;66.41
48390;BME280;34643;47.964;7.982;2022-10-18T14:47:47;97647.44;;;19.82;66.41
48390;BME280;34643;47.964;7.982;2022-10-18T14:52:47;97636.94;;;19.82;66.47
48390;BME280;34643;47.964;7.982;2022-10-18T14:57:47;97639.56;;;19.82;66.21
48390;BME280;34643;47.964;7.982;2022-10-18T15:02:48;97631.72;;;19.82;66.28
48390;BME280;34643;47.964;7.982;2022-10-18T15:07:49;97635.19;;;19.83;66.27
48390;BME280;34643;47.964;7.982;2022-10-18T15:12:49;97638.75;;;19.82;66.17
48390;BME280;34643;47.964;7.982;2022-10-18T15:17:51;97630.06;;;19.81;66.07
48390;BME280;34643;47.964;7.982;2022-10-18T15:22:51;97637.91;;;19.81;66.08
48390;BME280;34643;47.964;7.982;2022-10-18T15:27:52;97632.66;;;19.81;66.05
48390;BME280;34643;47.964;7.982;2022-10-18T15:32:55;97634.44;;;19.81;66.09
48390;BME280;34643;47.964;7.982;2022-10-18T15:37:57;97624.91;;;19.80;66.03
48390;BME280;34643;47.964;7.982;2022-10-18T15:42:59;97628.38;;;19.80;65.96
48390;BME280;34643;47.964;7.982;2022-10-18T15:58:23;97620.59;;;19.79;65.92
48390;BME280;34643;47.964;7.982;2022-10-18T16:03:24;97627.63;;;19.78;65.99
48390;BME280;34643;47.964;7.982;2022-10-18T16:08:25;97619.78;;;19.78;65.96
48390;BME280;34643;47.964;7.982;2022-10-18T16:13:29;97622.41;;;19.78;65.88
48390;BME280;34643;47.964;7.982;2022-10-18T16:18:29;97621.56;;;19.78;65.90
48390;BME280;34643;47.964;7.982;2022-10-18T16:23:30;97620.59;;;19.79;65.91
48390;BME280;34643;47.964;7.982;2022-10-18T16:28:30;97630.16;;;19.80;65.90
48390;BME280;34643;47.964;7.982;2022-10-18T16:33:30;97629.53;;;19.76;65.91
48390;BME280;34643;47.964;7.982;2022-10-18T16:38:34;97630.38;;;19.77;65.90
48390;BME280;34643;47.964;7.982;2022-10-18T16:43:35;97628.56;;;19.77;65.75
48390;BME280;34643;47.964;7.982;2022-10-18T16:48:37;97638.31;;;19.75;65.81
48390;BME280;34643;47.964;7.982;2022-10-18T16:53:37;97640.94;;;19.75;65.74
48390;BME280;34643;47.964;7.982;2022-10-18T16:58:37;97646.19;;;19.75;65.75
48390;BME280;34643;47.964;7.982;2022-10-18T17:03:38;97646.19;;;19.75;65.62
48390;BME280;34643;47.964;7.982;2022-10-18T17:08:38;97649.78;;;19.74;65.69
48390;BME280;34643;47.964;7.982;2022-10-18T17:13:38;97652.03;;;19.79;65.87
48390;BME280;34643;47.964;7.982;2022-10-18T17:18:39;97659.59;;;19.83;65.74
48390;BME280;34643;47.964;7.982;2022-10-18T17:23:39;97661.69;;;19.78;65.73
48390;BME280;34643;47.964;7.982;2022-10-18T17:28:39;97667.75;;;19.79;65.77
48390;BME280;34643;47.964;7.982;2022-10-18T17:33:39;97668.81;;;19.76;65.75
48390;BME280;34643;47.964;7.982;2022-10-18T17:38:40;97677.50;;;19.77;65.80
48390;BME280;34643;47.964;7.982;2022-10-18T17:43:40;97675.81;;;19.88;65.80
48390;BME280;34643;47.964;7.982;2022-10-18T17:48:40;97675.91;;;20.00;65.78
48390;BME280;34643;47.964;7.982;2022-10-18T17:53:41;97685.66;;;19.98;66.13
48390;BME280;34643;47.964;7.982;2022-10-18T17:58:41;97684.81;;;19.97;66.19
48390;BME280;34643;47.964;7.982;2022-10-18T18:03:46;97690.88;;;19.98;66.61
48390;BME280;34643;47.964;7.982;2022-10-18T18:08:49;97686.59;;;19.97;66.64
48390;BME280;34643;47.964;7.982;2022-10-18T18:13:49;97683.25;;;19.94;66.62
48390;BME280;34643;47.964;7.982;2022-10-18T18:18:50;97689.44;;;19.93;67.20
48390;BME280;34643;47.964;7.982;2022-10-18T18:23:51;97691.31;;;19.91;67.42
48390;BME280;34643;47.964;7.982;2022-10-18T18:28:52;97684.41;;;19.90;67.43
48390;BME280;34643;47.964;7.982;2022-10-18T18:33:53;97681.78;;;19.90;67.32
48390;BME280;34643;47.964;7.982;2022-10-18T18:38:54;97678.22;;;19.91;67.02
48390;BME280;34643;47.964;7.982;2022-10-18T18:43:55;97682.63;;;19.91;67.30
48390;BME280;34643;47.964;7.982;2022-10-18T18:48:56;97683.44;;;19.91;67.24
48390;BME280;34643;47.964;7.982;2022-10-18T18:53:57;97687.03;;;19.90;67.58
48390;BME280;34643;47.964;7.982;2022-10-18T18:58:58;97683.59;;;19.90;67.76
48390;BME280;34643;47.964;7.982;2022-10-18T19:03:59;97692.28;;;19.90;67.73
48390;BME280;34643;47.964;7.982;2022-10-18T19:09:00;97694.06;;;19.90;67.71
48390;BME280;34643;47.964;7.982;2022-10-18T19:14:02;97679.16;;;19.90;67.92
48390;BME280;34643;47.964;7.982;2022-10-18T19:19:10;97681.78;;;19.90;67.93
48390;BME280;34643;47.964;7.982;2022-10-18T19:24:11;97680.97;;;19.90;67.89
48390;BME280;34643;47.964;7.982;2022-10-18T19:29:16;97681.78;;;19.90;67.87
48390;BME280;34643;47.964;7.982;2022-10-18T19:34:17;97687.03;;;19.90;67.90
48390;BME280;34643;47.964;7.982;2022-10-18T19:39:18;97679.16;;;19.90;67.91
48390;BME280;34643;47.964;7.982;2022-10-18T19:44:19;97677.38;;;19.91;67.88
48390;BME280;34643;47.964;7.982;2022-10-18T19:49:20;97679.16;;;19.90;67.66
48390;BME280;34643;47.964;7.982;2022-10-18T19:54:20;97675.72;;;19.90;67.80
48390;BME280;34643;47.964;7.982;2022-10-18T19:59:21;97673.94;;;19.90;67.96
48390;BME280;34643;47.964;7.982;2022-10-18T20:04:21;97667.88;;;19.90;67.71
48390;BME280;34643;47.964;7.982;2022-10-18T20:09:22;97670.47;;;19.90;67.78
48390;BME280;34643;47.964;7.982;2022-10-18T20:14:22;97668.78;;;19.89;67.60
48390;BME280;34643;47.964;7.982;2022-10-18T20:19:22;97674.84;;;19.89;67.50
48390;BME280;34643;47.964;7.982;2022-10-18T20:24:23;97684.50;;;19.89;67.53
48390;BME280;34643;47.964;7.982;2022-10-18T20:29:23;97673.94;;;19.90;67.60
48390;BME280;34643;47.964;7.982;2022-10-18T20:34:24;97674.03;;;19.89;67.73
48390;BME280;34643;47.964;7.982;2022-10-18T20:39:25;97674.66;;;19.92;67.62
48390;BME280;34643;47.964;7.982;2022-10-18T20:44:25;97675.47;;;19.93;67.01
48390;BME280;34643;47.964;7.982;2022-10-18T20:49:26;97679.16;;;19.90;67.16
48390;BME280;34643;47.964;7.982;2022-10-18T20:54:26;97681.78;;;19.90;67.10
48390;BME280;34643;47.964;7.982;2022-10-18T20:59:26;97670.47;;;19.90;66.99
48390;BME280;34643;47.964;7.982;2022-10-18T21:04:27;97665.25;;;19.90;66.96
48390;BME280;34643;47.964;7.982;2022-10-18T21:09:27;97664.38;;;19.89;66.94
48390;BME280;34643;47.964;7.982;2022-10-18T21:14:27;97666.91;;;19.91;66.90
48390;BME280;34643;47.964;7.982;2022-10-18T21:19:28;97660.09;;;19.88;66.82
48390;BME280;34643;47.964;7.982;2022-10-18T21:24:28;97647.84;;;19.89;66.77
48390;BME280;34643;47.964;7.982;2022-10-18T21:29:29;97641.66;;;19.90;66.52
48390;BME280;34643;47.964;7.982;2022-10-18T21:34:30;97639.25;;;19.87;66.67
48390;BME280;34643;47.964;7.982;2022-10-18T21:39:30;97633.91;;;19.88;66.59
48390;BME280;34643;47.964;7.982;2022-10-18T21:44:30;97639.16;;;19.88;66.45
48390;BME280;34643;47.964;7.982;2022-10-18T21:49:30;97640.81;;;19.89;66.28
48390;BME280;34643;47.964;7.982;2022-10-18T21:54:34;97634.72;;;19.89;66.57
48390;BME280;34643;47.964;7.982;2022-10-18T21:59:34;97625.09;;;19.89;66.50
48390;BME280;34643;47.964;7.982;2022-10-18T22:04:34;97623.44;;;19.88;66.42
48390;BME280;34643;47.964;7.982;2022-10-18T22:09:35;97623.44;;;19.88;66.35
48390;BME280;34643;47.964;7.982;2022-10-18T22:14:35;97619.00;;;19.89;66.53
48390;BME280;34643;47.964;7.982;2022-10-18T22:19:35;97620.69;;;19.90;66.48
48390;BME280;34643;47.964;7.982;2022-10-18T22:24:35;97617.31;;;19.88;66.43
48390;BME280;34643;47.964;7.982;2022-10-18T22:29:36;97615.66;;;19.87;66.38
48390;BME280;34643;47.964;7.982;2022-10-18T22:34:36;97611.16;;;19.89;66.36
48390;BME280;34643;47.964;7.982;2022-10-18T22:39:36;97608.63;;;19.87;66.52
48390;BME280;34643;47.964;7.982;2022-10-18T22:44:36;97599.84;;;19.88;66.42
48390;BME280;34643;47.964;7.982;2022-10-18T22:49:37;97593.88;;;19.86;66.31
48390;BME280;34643;47.964;7.982;2022-10-18T22:54:37;97592.09;;;19.87;66.83
48390;BME280;34643;47.964;7.982;2022-10-18T22:59:37;97594.72;;;19.87;66.24
48390;BME280;34643;47.964;7.982;2022-10-18T23:04:37;97587.78;;;19.86;66.47
48390;BME280;34643;47.964;7.982;2022-10-18T23:09:38;97591.28;;;19.86;66.35
48390;BME280;34643;47.964;7.982;2022-10-18T23:14:38;97591.38;;;19.85;66.29
48390;BME280;34643;47.964;7.982;2022-10-18T23:19:38;97594.81;;;19.85;66.20
48390;BME280;34643;47.964;7.982;2022-10-18T23:24:39;97592.19;;;19.85;66.25
48390;BME280;34643;47.964;7.982;2022-10-18T23:29:39;97585.28;;;19.84;66.41
48390;BME280;34643;47.964;7.982;2022-10-18T23:34:39;97582.66;;;19.84;66.19
48390;BME280;34643;47.964;7.982;2022-10-18T23:39:39;97574.78;;;19.84;66.11
48390;BME280;34643;47.964;7.982;2022-10-18T23:44:40;97577.41;;;19.84;66.19
48390;BME280;34643;47.964;7.982;2022-10-18T23:49:40;97572.19;;;19.84;66.33
48390;BME280;34643;47.964;7.982;2022-10-18T23:54:41;97564.31;;;19.84;66.22
48390;BME280;34643;47.964;7.982;2022-10-18T23:59:41;97556.47;;;19.84;66.30
